Time;durP1;ratioP1;P1;durP2;ratioP2;P2;SDS_P1;SDS_P2;PMS_P1;PMS_P2;Temp;Humidity;BMP_temperature;BMP_pressure;BME280_temperature;BME280_humidity;BME280_pressure;Samples;Min_cycle;Max_cycle;Signal;HPM_P1;HPM_P2
2021/03/28 00:01:17;;;;;;;0.73;0.30;;;;;;;;;;5049911;28;20557;-58
2021/03/28 00:03:46;;;;;;;2.33;0.70;;;;;;;;;;5052921;28;20228;-58
2021/03/28 00:06:22;;;;;;;0.10;0.10;;;;;;;;;;5042969;28;20197;-59
2021/03/28 00:09:08;;;;;;;3.13;2.93;;;;;;;;;;5042554;28;20183;-58
2021/03/28 00:11:39;;;;;;;3.13;0.50;;;;;;;;;;5046263;28;20190;-58
2021/03/28 00:14:06;;;;;;;0.17;0.17;;;;;;;;;;5041814;28;20421;-59
2021/03/28 00:16:45;;;;;;;0.13;0.13;;;;;;;;;;5053540;28;20276;-58
2021/03/28 00:19:22;;;;;;;0.20;0.20;;;;;;;;;;5046109;28;20272;-58
2021/03/28 00:21:51;;;;;;;0.30;0.17;;;;;;;;;;5059442;28;20182;-58
2021/03/28 00:24:53;;;;;;;0.20;0.20;;;;;;;;;;5044007;28;20835;-58
2021/03/28 00:27:21;;;;;;;0.30;0.20;;;;;;;;;;4991837;28;20479;-58
2021/03/28 00:30:03;;;;;;;2.07;1.00;;;;;;;;;;5037888;28;20230;-58
2021/03/28 00:32:48;;;;;;;0.20;0.20;;;;;;;;;;5045720;28;20532;-58
2021/03/28 00:35:17;;;;;;;0.20;0.20;;;;;;;;;;5049753;28;20195;-59
2021/03/28 00:37:45;;;;;;;0.10;0.10;;;;;;;;;;5037557;28;20531;-58
2021/03/28 00:40:11;;;;;;;0.97;0.97;;;;;;;;;;5039740;28;20288;-58
2021/03/28 00:42:40;;;;;;;0.20;0.20;;;;;;;;;;5040219;28;20187;-58
2021/03/28 00:45:24;;;;;;;0.10;0.10;;;;;;;;;;5044408;28;20203;-58
2021/03/28 00:48:09;;;;;;;0.30;0.30;;;;;;;;;;5049644;28;20190;-59
2021/03/28 00:50:44;;;;;;;3.93;1.10;;;;;;;;;;5047247;28;20202;-58
2021/03/28 00:53:12;;;;;;;0.10;0.10;;;;;;;;;;5047608;28;20273;-58
2021/03/28 00:55:40;;;;;;;0.10;0.10;;;;;;;;;;5048229;28;20187;-58
2021/03/28 00:58:19;;;;;;;0.30;0.30;;;;;;;;;;5051452;28;20174;-59
2021/03/28 01:00:46;;;;;;;0.83;0.30;;;;;;;;;;5048869;28;20182;-58
2021/03/28 01:03:55;;;;;;;4.60;0.80;;;;;;;;;;5037747;28;20187;-59
2021/03/28 01:06:44;;;;;;;0.10;0.10;;;;;;;;;;5044451;28;20249;-59
2021/03/28 01:09:33;;;;;;;0.10;0.10;;;;;;;;;;5050701;28;20756;-58
2021/03/28 01:12:18;;;;;;;0.20;0.20;;;;;;;;;;5045655;28;20222;-57
2021/03/28 01:14:51;;;;;;;2.87;0.87;;;;;;;;;;5046665;28;20653;-58
2021/03/28 01:17:36;;;;;;;2.67;0.20;;;;;;;;;;5054602;28;20653;-57
2021/03/28 01:20:08;;;;;;;2.23;1.37;;;;;;;;;;5051098;28;20191;-58
2021/03/28 01:22:44;;;;;;;0.10;0.10;;;;;;;;;;5048265;28;20190;-58
2021/03/28 01:25:15;;;;;;;0.10;0.10;;;;;;;;;;5047232;28;20532;-58
2021/03/28 01:28:02;;;;;;;0.30;0.30;;;;;;;;;;5049602;28;21039;-58
2021/03/28 01:30:43;;;;;;;2.33;2.23;;;;;;;;;;5053606;28;20881;-58
2021/03/28 01:33:31;;;;;;;0.77;0.73;;;;;;;;;;5077018;28;20189;-58
2021/03/28 01:36:12;;;;;;;0.67;0.67;;;;;;;;;;5056089;28;20972;-58
2021/03/28 01:38:46;;;;;;;0.10;0.10;;;;;;;;;;5063737;28;20190;-58
2021/03/28 01:41:22;;;;;;;4.37;0.60;;;;;;;;;;5059324;28;20844;-58
2021/03/28 01:44:07;;;;;;;0.10;0.10;;;;;;;;;;5053710;28;20727;-58
2021/03/28 01:46:42;;;;;;;0.53;0.47;;;;;;;;;;5057044;28;20772;-58
2021/03/28 01:49:17;;;;;;;2.00;0.30;;;;;;;;;;5040015;28;20197;-58
2021/03/28 01:51:48;;;;;;;0.50;0.20;;;;;;;;;;5052966;28;20178;-58
2021/03/28 01:54:18;;;;;;;0.10;0.10;;;;;;;;;;5057719;28;20197;-58
2021/03/28 01:56:47;;;;;;;1.40;1.03;;;;;;;;;;5047641;28;20249;-58
2021/03/28 01:59:27;;;;;;;1.33;0.83;;;;;;;;;;5054239;28;20327;-58
2021/03/28 02:02:08;;;;;;;0.30;0.30;;;;;;;;;;5046434;28;20176;-58
2021/03/28 02:04:44;;;;;;;1.10;1.07;;;;;;;;;;5042091;28;20923;-58
2021/03/28 02:07:10;;;;;;;0.07;0.07;;;;;;;;;;5044310;28;20174;-58
2021/03/28 02:09:57;;;;;;;0.00;0.00;;;;;;;;;;5053400;28;20234;-58
2021/03/28 02:12:50;;;;;;;0.10;0.10;;;;;;;;;;5043502;28;20699;-58
2021/03/28 02:15:27;;;;;;;0.53;0.53;;;;;;;;;;5026214;28;20221;-58
2021/03/28 02:18:12;;;;;;;0.10;0.10;;;;;;;;;;5054993;28;20189;-58
2021/03/28 02:21:02;;;;;;;0.10;0.10;;;;;;;;;;5052143;28;20185;-58
2021/03/28 02:23:51;;;;;;;0.10;0.10;;;;;;;;;;5044107;28;20310;-58
2021/03/28 02:26:36;;;;;;;0.70;0.70;;;;;;;;;;5042902;28;20191;-58
2021/03/28 02:29:09;;;;;;;0.10;0.10;;;;;;;;;;5050632;28;20230;-58
2021/03/28 02:31:54;;;;;;;0.17;0.17;;;;;;;;;;5050404;28;20299;-58
2021/03/28 02:34:27;;;;;;;0.10;0.10;;;;;;;;;;5050763;28;20855;-58
2021/03/28 02:37:15;;;;;;;0.10;0.10;;;;;;;;;;5041509;28;20174;-58
2021/03/28 02:39:44;;;;;;;0.00;0.00;;;;;;;;;;5043368;28;20954;-58
2021/03/28 02:42:17;;;;;;;0.57;0.57;;;;;;;;;;5045465;28;20215;-58
2021/03/28 02:45:03;;;;;;;0.10;0.10;;;;;;;;;;5051659;28;20926;-58
2021/03/28 02:47:41;;;;;;;0.67;0.67;;;;;;;;;;5055034;28;20192;-58
2021/03/28 02:50:07;;;;;;;0.10;0.10;;;;;;;;;;5047506;28;20210;-58
2021/03/28 02:52:40;;;;;;;0.20;0.20;;;;;;;;;;5046212;28;20186;-58
2021/03/28 02:55:45;;;;;;;3.10;1.17;;;;;;;;;;5048192;28;20293;-58
2021/03/28 02:58:19;;;;;;;0.67;0.57;;;;;;;;;;4988266;28;20967;-58
2021/03/28 03:01:06;;;;;;;0.10;0.10;;;;;;;;;;4988693;28;20227;-58
2021/03/28 03:03:35;;;;;;;0.63;0.63;;;;;;;;;;4990152;28;20194;-58
2021/03/28 03:06:11;;;;;;;0.20;0.20;;;;;;;;;;5044941;28;20235;-58
2021/03/28 03:08:38;;;;;;;19.33;0.57;;;;;;;;;;5041686;28;20206;-58
2021/03/28 03:11:13;;;;;;;0.40;0.30;;;;;;;;;;5042911;28;20963;-58
2021/03/28 03:13:48;;;;;;;0.10;0.10;;;;;;;;;;5044911;28;20178;-58
2021/03/28 03:16:47;;;;;;;0.10;0.10;;;;;;;;;;5047221;28;20181;-58
2021/03/28 03:19:29;;;;;;;0.37;0.27;;;;;;;;;;5025546;28;20501;-58
2021/03/28 03:21:56;;;;;;;0.17;0.17;;;;;;;;;;5046898;28;20647;-58
2021/03/28 03:24:46;;;;;;;0.17;0.17;;;;;;;;;;5043925;28;20190;-58
2021/03/28 03:27:31;;;;;;;0.30;0.30;;;;;;;;;;5052860;28;20196;-58
2021/03/28 03:30:00;;;;;;;0.67;0.67;;;;;;;;;;5052254;28;20221;-58
2021/03/28 03:32:29;;;;;;;0.00;0.00;;;;;;;;;;5045604;28;20183;-58
2021/03/28 03:35:02;;;;;;;0.00;0.00;;;;;;;;;;5047950;28;20348;-58
2021/03/28 03:37:38;;;;;;;0.73;0.73;;;;;;;;;;5039938;28;20693;-58
2021/03/28 03:40:07;;;;;;;0.00;0.00;;;;;;;;;;5041197;28;20616;-58
2021/03/28 03:42:52;;;;;;;0.00;0.00;;;;;;;;;;5044809;28;20313;-58
2021/03/28 03:45:34;;;;;;;0.10;0.10;;;;;;;;;;5043365;28;20193;-58
2021/03/28 03:48:10;;;;;;;0.73;0.37;;;;;;;;;;5050166;28;20224;-58
2021/03/28 03:50:39;;;;;;;0.00;0.00;;;;;;;;;;5049818;28;20707;-58
2021/03/28 03:53:15;;;;;;;2.30;1.23;;;;;;;;;;5045867;28;20190;-58
2021/03/28 03:55:50;;;;;;;0.53;0.53;;;;;;;;;;5051363;28;20186;-58
2021/03/28 03:58:25;;;;;;;0.00;0.00;;;;;;;;;;5046164;28;20366;-58
2021/03/28 04:00:58;;;;;;;0.00;0.00;;;;;;;;;;5050018;28;20843;-58
2021/03/28 04:03:34;;;;;;;0.00;0.00;;;;;;;;;;5046733;28;20211;-58
2021/03/28 04:06:13;;;;;;;2.53;0.63;;;;;;;;;;5051973;28;22132;-58
2021/03/28 04:08:54;;;;;;;1.00;1.00;;;;;;;;;;5045711;28;20218;-58
2021/03/28 04:11:24;;;;;;;0.10;0.10;;;;;;;;;;5046264;28;20825;-57
2021/03/28 04:13:54;;;;;;;0.20;0.20;;;;;;;;;;5045712;28;20939;-58
2021/03/28 04:16:37;;;;;;;0.40;0.40;;;;;;;;;;5041494;28;20228;-58
2021/03/28 04:19:10;;;;;;;1.50;1.47;;;;;;;;;;5050539;28;20178;-58
2021/03/28 04:21:49;;;;;;;0.10;0.10;;;;;;;;;;5052077;28;20183;-58
2021/03/28 04:24:19;;;;;;;2.00;0.83;;;;;;;;;;5057978;28;20713;-58
2021/03/28 04:27:04;;;;;;;2.00;1.87;;;;;;;;;;5047270;28;20626;-58
2021/03/28 04:29:31;;;;;;;0.00;0.00;;;;;;;;;;5049822;28;20191;-58
2021/03/28 04:32:05;;;;;;;0.20;0.20;;;;;;;;;;5057243;28;20285;-58
2021/03/28 04:34:35;;;;;;;0.00;0.00;;;;;;;;;;5049872;28;20221;-58
2021/03/28 04:37:10;;;;;;;0.63;0.63;;;;;;;;;;5048712;28;20633;-58
2021/03/28 04:39:40;;;;;;;0.97;0.97;;;;;;;;;;5047657;28;20788;-57
2021/03/28 04:42:08;;;;;;;0.00;0.00;;;;;;;;;;5056028;28;20671;-58
2021/03/28 04:44:50;;;;;;;0.43;0.40;;;;;;;;;;5046757;28;20227;-58
2021/03/28 04:47:25;;;;;;;9.10;0.57;;;;;;;;;;5046356;28;20734;-58
2021/03/28 04:49:52;;;;;;;0.00;0.00;;;;;;;;;;5047065;28;20923;-58
2021/03/28 04:52:30;;;;;;;0.13;0.13;;;;;;;;;;5039131;28;20174;-58
2021/03/28 04:55:00;;;;;;;0.10;0.10;;;;;;;;;;5046938;28;20170;-58
2021/03/28 04:57:41;;;;;;;0.40;0.37;;;;;;;;;;5040319;28;20782;-58
2021/03/28 05:00:19;;;;;;;8.00;4.03;;;;;;;;;;5037118;28;20237;-58
2021/03/28 05:02:49;;;;;;;0.40;0.40;;;;;;;;;;5052025;28;20207;-58
2021/03/28 05:05:34;;;;;;;1.87;1.57;;;;;;;;;;5051894;28;20192;-58
2021/03/28 05:08:10;;;;;;;0.10;0.10;;;;;;;;;;5047214;28;20201;-58
2021/03/28 05:10:46;;;;;;;4.00;1.07;;;;;;;;;;5049224;28;20233;-58
2021/03/28 05:13:31;;;;;;;1.63;0.30;;;;;;;;;;5042746;28;20182;-58
2021/03/28 05:16:30;;;;;;;0.10;0.10;;;;;;;;;;5043365;28;20174;-58
2021/03/28 05:19:02;;;;;;;0.03;0.03;;;;;;;;;;5042860;28;20247;-58
2021/03/28 05:21:32;;;;;;;8.10;3.10;;;;;;;;;;5042700;28;20240;-58
2021/03/28 05:24:08;;;;;;;0.20;0.20;;;;;;;;;;5042169;28;20900;-58
2021/03/28 05:26:34;;;;;;;0.10;0.10;;;;;;;;;;5058679;28;20189;-58
2021/03/28 05:29:21;;;;;;;0.00;0.00;;;;;;;;;;5042099;28;21023;-58
2021/03/28 05:32:26;;;;;;;0.03;0.03;;;;;;;;;;5053226;28;20206;-58
2021/03/28 05:35:02;;;;;;;0.37;0.37;;;;;;;;;;4986221;28;20210;-58
2021/03/28 05:37:31;;;;;;;0.57;0.57;;;;;;;;;;4985761;28;20921;-58
2021/03/28 05:40:13;;;;;;;0.10;0.10;;;;;;;;;;5017177;28;20663;-58
2021/03/28 05:42:45;;;;;;;0.07;0.07;;;;;;;;;;5038673;28;20925;-58
2021/03/28 05:45:21;;;;;;;0.73;0.13;;;;;;;;;;5052004;28;20180;-58
2021/03/28 05:48:00;;;;;;;2.17;0.60;;;;;;;;;;5044464;28;20703;-58
2021/03/28 05:50:29;;;;;;;1.20;0.87;;;;;;;;;;5042032;28;20634;-58
2021/03/28 05:53:11;;;;;;;2.93;0.67;;;;;;;;;;5045642;28;20186;-58
2021/03/28 05:55:56;;;;;;;2.10;0.53;;;;;;;;;;5052490;28;20189;-58
2021/03/28 05:58:39;;;;;;;0.03;0.03;;;;;;;;;;5058323;28;20186;-58
2021/03/28 06:01:09;;;;;;;0.40;0.40;;;;;;;;;;5055271;28;20902;-58
2021/03/28 06:03:38;;;;;;;0.37;0.37;;;;;;;;;;5053219;28;20679;-58
2021/03/28 06:06:05;;;;;;;0.20;0.20;;;;;;;;;;5049315;28;20560;-58
2021/03/28 06:08:31;;;;;;;1.13;0.87;;;;;;;;;;5049500;28;20847;-58
2021/03/28 06:11:04;;;;;;;0.07;0.07;;;;;;;;;;5046041;28;20928;-58
2021/03/28 06:13:43;;;;;;;0.00;0.00;;;;;;;;;;5044297;28;20226;-58
2021/03/28 06:16:12;;;;;;;1.40;0.60;;;;;;;;;;5048165;28;20224;-58
2021/03/28 06:18:57;;;;;;;0.57;0.57;;;;;;;;;;5048000;28;20831;-58
2021/03/28 06:21:42;;;;;;;1.17;0.57;;;;;;;;;;5046080;28;20185;-58
2021/03/28 06:24:20;;;;;;;4.17;1.70;;;;;;;;;;5041674;28;20265;-58
2021/03/28 06:27:05;;;;;;;0.20;0.10;;;;;;;;;;5054735;28;20214;-58
2021/03/28 06:29:54;;;;;;;0.10;0.10;;;;;;;;;;5051365;28;20178;-58
2021/03/28 06:32:39;;;;;;;2.97;2.73;;;;;;;;;;5046943;28;20252;-58
2021/03/28 06:35:20;;;;;;;0.67;0.67;;;;;;;;;;5056445;28;20355;-57
2021/03/28 06:37:53;;;;;;;0.10;0.10;;;;;;;;;;5057617;28;20175;-58
2021/03/28 06:40:42;;;;;;;0.33;0.33;;;;;;;;;;5046236;28;20190;-58
2021/03/28 06:43:27;;;;;;;2.17;1.00;;;;;;;;;;5047269;28;20243;-58
2021/03/28 06:46:01;;;;;;;0.00;0.00;;;;;;;;;;5049223;28;20178;-58
2021/03/28 06:48:43;;;;;;;9.90;1.17;;;;;;;;;;5048595;28;20276;-58
2021/03/28 06:51:09;;;;;;;17.63;0.87;;;;;;;;;;5053784;28;20208;-58
2021/03/28 06:53:39;;;;;;;0.20;0.20;;;;;;;;;;5044432;28;20183;-58
2021/03/28 06:56:17;;;;;;;0.00;0.00;;;;;;;;;;5043331;28;21055;-58
2021/03/28 06:58:47;;;;;;;0.40;0.40;;;;;;;;;;5051808;28;20835;-58
2021/03/28 07:01:23;;;;;;;0.00;0.00;;;;;;;;;;5062212;28;20191;-58
2021/03/28 07:04:03;;;;;;;0.37;0.37;;;;;;;;;;5044474;28;20686;-58
2021/03/28 07:06:39;;;;;;;0.07;0.07;;;;;;;;;;5041620;28;20187;-58
2021/03/28 07:09:30;;;;;;;0.10;0.10;;;;;;;;;;5046820;28;20998;-58
2021/03/28 07:12:15;;;;;;;2.23;1.07;;;;;;;;;;5048073;28;20256;-58
2021/03/28 07:14:54;;;;;;;0.83;0.83;;;;;;;;;;5043492;28;20179;-58
2021/03/28 07:17:20;;;;;;;0.00;0.00;;;;;;;;;;5054677;28;20669;-58
2021/03/28 07:19:58;;;;;;;0.10;0.10;;;;;;;;;;5051876;28;20643;-58
2021/03/28 07:22:45;;;;;;;0.00;0.00;;;;;;;;;;5047787;28;20207;-58
2021/03/28 07:25:31;;;;;;;3.13;0.73;;;;;;;;;;5046806;28;21017;-58
2021/03/28 07:27:58;;;;;;;0.90;0.37;;;;;;;;;;5044003;28;20187;-58
2021/03/28 07:30:36;;;;;;;0.10;0.10;;;;;;;;;;5045780;28;20753;-58
2021/03/28 07:33:22;;;;;;;0.00;0.00;;;;;;;;;;5046699;28;20643;-58
2021/03/28 07:36:06;;;;;;;0.90;0.63;;;;;;;;;;5044510;28;20211;-58
2021/03/28 07:38:51;;;;;;;1.23;1.23;;;;;;;;;;5061566;28;20280;-58
2021/03/28 07:41:36;;;;;;;1.90;0.17;;;;;;;;;;5050865;28;20189;-58
2021/03/28 07:44:09;;;;;;;1.37;1.03;;;;;;;;;;5047860;28;20739;-58
2021/03/28 07:46:38;;;;;;;0.83;0.73;;;;;;;;;;5049294;28;20991;-58
2021/03/28 07:49:08;;;;;;;0.07;0.07;;;;;;;;;;5044186;28;20637;-58
2021/03/28 07:51:34;;;;;;;0.17;0.17;;;;;;;;;;5044246;28;20748;-58
2021/03/28 07:54:04;;;;;;;4.37;1.23;;;;;;;;;;5042172;28;20659;-58
2021/03/28 07:56:33;;;;;;;0.10;0.10;;;;;;;;;;5053542;28;20191;-58
2021/03/28 07:59:22;;;;;;;7.03;1.67;;;;;;;;;;5062202;28;20220;-58
2021/03/28 08:02:10;;;;;;;0.10;0.10;;;;;;;;;;5054009;28;20301;-58
2021/03/28 08:04:55;;;;;;;4.53;0.87;;;;;;;;;;5043714;28;20201;-58
2021/03/28 08:07:25;;;;;;;0.10;0.10;;;;;;;;;;5050315;28;20183;-58
2021/03/28 08:10:07;;;;;;;0.20;0.20;;;;;;;;;;5045693;28;20222;-58
2021/03/28 08:12:36;;;;;;;0.37;0.33;;;;;;;;;;5057565;28;20267;-60
2021/03/28 08:15:06;;;;;;;0.10;0.10;;;;;;;;;;5054904;28;20189;-59
2021/03/28 08:17:39;;;;;;;0.43;0.30;;;;;;;;;;5044368;28;21028;-59
2021/03/28 08:20:24;;;;;;;0.83;0.83;;;;;;;;;;5041618;28;20182;-59
2021/03/28 08:22:51;;;;;;;0.10;0.10;;;;;;;;;;5045189;28;20665;-59
2021/03/28 08:25:23;;;;;;;0.00;0.00;;;;;;;;;;5047265;28;20829;-59
2021/03/28 08:27:51;;;;;;;1.33;1.30;;;;;;;;;;5048197;28;20186;-59
2021/03/28 08:30:20;;;;;;;0.37;0.23;;;;;;;;;;5053856;28;20232;-59
2021/03/28 08:32:53;;;;;;;0.00;0.00;;;;;;;;;;5049776;28;20194;-59
2021/03/28 08:35:38;;;;;;;0.13;0.13;;;;;;;;;;5050183;28;20187;-59
2021/03/28 08:38:23;;;;;;;5.20;1.90;;;;;;;;;;5053205;28;20198;-59
2021/03/28 08:41:16;;;;;;;10.93;0.60;;;;;;;;;;5044850;28;20185;-59
2021/03/28 08:44:01;;;;;;;0.00;0.00;;;;;;;;;;5049077;28;21003;-59
2021/03/28 08:46:43;;;;;;;0.10;0.10;;;;;;;;;;5043805;28;20186;-59
2021/03/28 08:49:24;;;;;;;0.10;0.10;;;;;;;;;;5057350;28;20671;-59
2021/03/28 08:51:59;;;;;;;0.10;0.10;;;;;;;;;;5045010;28;20707;-59
2021/03/28 08:54:26;;;;;;;0.00;0.00;;;;;;;;;;5042028;28;20195;-59
2021/03/28 08:57:05;;;;;;;0.47;0.30;;;;;;;;;;5046450;28;20920;-60
2021/03/28 08:59:42;;;;;;;6.80;0.63;;;;;;;;;;5051093;28;20189;-59
2021/03/28 09:02:18;;;;;;;16.97;3.00;;;;;;;;;;5046460;28;20196;-59
2021/03/28 09:04:48;;;;;;;0.20;0.20;;;;;;;;;;5043268;28;20184;-59
2021/03/28 09:07:14;;;;;;;0.30;0.20;;;;;;;;;;5046620;28;20198;-59
2021/03/28 09:09:48;;;;;;;0.70;0.40;;;;;;;;;;5046037;28;20255;-59
2021/03/28 09:12:21;;;;;;;4.17;2.97;;;;;;;;;;5043305;28;20191;-59
2021/03/28 09:14:59;;;;;;;1.10;0.57;;;;;;;;;;5043871;28;20269;-59
2021/03/28 09:17:35;;;;;;;1.60;1.03;;;;;;;;;;5051981;28;20204;-59
2021/03/28 09:20:10;;;;;;;12.73;1.43;;;;;;;;;;5046012;28;20271;-59
2021/03/28 09:22:46;;;;;;;0.20;0.20;;;;;;;;;;5046042;28;20253;-59
2021/03/28 09:25:12;;;;;;;0.70;0.40;;;;;;;;;;5047879;28;20716;-59
2021/03/28 09:27:52;;;;;;;0.30;0.30;;;;;;;;;;5049653;28;20266;-59
2021/03/28 09:30:27;;;;;;;1.07;1.07;;;;;;;;;;5056800;28;20229;-59
2021/03/28 09:32:54;;;;;;;2.07;1.43;;;;;;;;;;5051694;28;20185;-59
2021/03/28 09:35:39;;;;;;;0.00;0.00;;;;;;;;;;5050005;28;20188;-58
2021/03/28 09:38:14;;;;;;;3.90;0.53;;;;;;;;;;5051458;28;20190;-58
2021/03/28 09:40:48;;;;;;;0.10;0.10;;;;;;;;;;5049435;28;20205;-59
2021/03/28 09:43:19;;;;;;;1.50;0.77;;;;;;;;;;5059925;28;20720;-58
2021/03/28 09:45:52;;;;;;;0.10;0.10;;;;;;;;;;5060111;28;20304;-58
2021/03/28 09:48:27;;;;;;;0.10;0.10;;;;;;;;;;5059993;28;20244;-58
2021/03/28 09:50:57;;;;;;;0.20;0.20;;;;;;;;;;5052026;28;20712;-58
2021/03/28 09:53:46;;;;;;;0.20;0.20;;;;;;;;;;5047504;28;20700;-59
2021/03/28 09:56:45;;;;;;;1.43;0.60;;;;;;;;;;5042157;28;20936;-59
2021/03/28 09:59:24;;;;;;;0.60;0.60;;;;;;;;;;5018594;28;20218;-58
2021/03/28 10:01:59;;;;;;;0.37;0.37;;;;;;;;;;5054383;28;20667;-58
2021/03/28 10:04:30;;;;;;;4.33;1.40;;;;;;;;;;5046987;28;20198;-58
2021/03/28 10:07:01;;;;;;;0.97;0.97;;;;;;;;;;5042333;28;20204;-58
2021/03/28 10:09:36;;;;;;;0.57;0.57;;;;;;;;;;5046233;28;20404;-59
2021/03/28 10:12:04;;;;;;;0.10;0.10;;;;;;;;;;5050504;28;20344;-59
2021/03/28 10:14:37;;;;;;;0.17;0.17;;;;;;;;;;5056131;28;20569;-58
2021/03/28 10:17:23;;;;;;;0.00;0.00;;;;;;;;;;5052936;28;20721;-58
2021/03/28 10:19:53;;;;;;;5.50;1.63;;;;;;;;;;5052407;28;20192;-59
2021/03/28 10:22:22;;;;;;;0.67;0.53;;;;;;;;;;5046086;28;20651;-58
2021/03/28 10:25:07;;;;;;;1.80;0.97;;;;;;;;;;5050266;28;20719;-59
2021/03/28 10:27:52;;;;;;;2.53;0.43;;;;;;;;;;5046297;28;20181;-60
2021/03/28 10:30:31;;;;;;;0.10;0.10;;;;;;;;;;5047595;28;20214;-62
2021/03/28 10:33:18;;;;;;;1.70;1.70;;;;;;;;;;5043847;28;20186;-61
2021/03/28 10:35:55;;;;;;;0.40;0.40;;;;;;;;;;5046872;28;20280;-61
2021/03/28 10:38:30;;;;;;;2.00;0.17;;;;;;;;;;5044796;28;20198;-62
2021/03/28 10:40:56;;;;;;;0.10;0.10;;;;;;;;;;5048060;28;20189;-61
2021/03/28 10:43:23;;;;;;;0.10;0.10;;;;;;;;;;5054131;28;20193;-62
2021/03/28 10:45:59;;;;;;;0.00;0.00;;;;;;;;;;5057362;28;20600;-61
2021/03/28 10:48:34;;;;;;;0.10;0.10;;;;;;;;;;5045889;28;20674;-61
2021/03/28 10:51:30;;;;;;;1.80;1.13;;;;;;;;;;5056527;28;20636;-61
2021/03/28 10:54:06;;;;;;;9.43;6.03;;;;;;;;;;5034797;28;20222;-61
2021/03/28 10:56:51;;;;;;;3.60;0.73;;;;;;;;;;5043738;28;20214;-61
2021/03/28 10:59:17;;;;;;;0.47;0.47;;;;;;;;;;5049426;28;20190;-61
2021/03/28 11:01:53;;;;;;;0.70;0.40;;;;;;;;;;5048776;28;20228;-60
2021/03/28 11:04:22;;;;;;;3.83;0.80;;;;;;;;;;5049988;28;20278;-61
2021/03/28 13:24:41;;;;;;;0.40;0.30;;;;;;;;;;5074965;27;20662;-58
2021/03/28 13:27:12;;;;;;;0.30;0.20;;;;;;;;;;5064529;28;20283;-57
2021/03/28 13:29:53;;;;;;;0.40;0.17;;;;;;;;;;5074174;28;20194;-58
2021/03/28 13:32:25;;;;;;;0.00;0.00;;;;;;;;;;5056095;28;20743;-57
2021/03/28 13:34:57;;;;;;;0.37;0.37;;;;;;;;;;5065104;28;20182;-57
2021/03/28 13:37:24;;;;;;;0.37;0.00;;;;;;;;;;5075083;28;20225;-57
2021/03/28 13:39:59;;;;;;;3.70;0.17;;;;;;;;;;5073519;28;20717;-57
2021/03/28 13:42:35;;;;;;;4.07;1.20;;;;;;;;;;5074399;28;20833;-58
2021/03/28 13:45:21;;;;;;;2.17;0.80;;;;;;;;;;5072966;28;20953;-57
2021/03/28 13:47:47;;;;;;;0.37;0.33;;;;;;;;;;5074459;28;20559;-58
2021/03/28 13:50:39;;;;;;;24.27;1.73;;;;;;;;;;5074175;28;20759;-58
2021/03/28 13:53:26;;;;;;;0.33;0.33;;;;;;;;;;5074558;28;20186;-58
2021/03/28 13:56:03;;;;;;;0.60;0.60;;;;;;;;;;5052570;28;20710;-58
2021/03/28 13:58:43;;;;;;;2.33;0.57;;;;;;;;;;5062763;28;20213;-58
2021/03/28 14:01:21;;;;;;;0.20;0.20;;;;;;;;;;5073901;28;20190;-58
2021/03/28 14:03:48;;;;;;;0.20;0.20;;;;;;;;;;5061201;28;20248;-58
2021/03/28 14:06:21;;;;;;;0.53;0.53;;;;;;;;;;5071528;28;20194;-58
2021/03/28 14:08:49;;;;;;;6.53;2.63;;;;;;;;;;5073510;28;20286;-58
2021/03/28 14:11:21;;;;;;;0.43;0.10;;;;;;;;;;5074013;28;20187;-58
2021/03/28 14:13:48;;;;;;;0.97;0.87;;;;;;;;;;5073744;28;20580;-58
2021/03/28 14:16:18;;;;;;;0.00;0.00;;;;;;;;;;5073469;28;20190;-58
2021/03/28 14:18:45;;;;;;;0.43;0.37;;;;;;;;;;5074445;28;20215;-58
2021/03/28 14:21:16;;;;;;;2.93;0.80;;;;;;;;;;5074365;28;20188;-58
2021/03/28 14:23:45;;;;;;;3.90;0.67;;;;;;;;;;5073754;28;20234;-58
2021/03/28 14:26:12;;;;;;;8.80;2.43;;;;;;;;;;5072502;28;20559;-58
2021/03/28 14:28:41;;;;;;;0.80;0.13;;;;;;;;;;5072902;28;20961;-58
2021/03/28 14:31:07;;;;;;;0.53;0.53;;;;;;;;;;5073678;28;20707;-58
2021/03/28 14:33:40;;;;;;;0.10;0.10;;;;;;;;;;5074146;28;20205;-58
2021/03/28 14:36:23;;;;;;;7.10;1.63;;;;;;;;;;5059546;28;20210;-58
2021/03/28 14:39:28;;;;;;;0.50;0.20;;;;;;;;;;5053438;28;20239;-58
2021/03/28 14:42:05;;;;;;;3.20;0.73;;;;;;;;;;5017009;28;20690;-58
2021/03/28 14:44:43;;;;;;;0.00;0.00;;;;;;;;;;5007802;28;21076;-58
2021/03/28 14:47:18;;;;;;;1.43;0.47;;;;;;;;;;5044072;28;20195;-58
2021/03/28 14:49:45;;;;;;;7.83;0.73;;;;;;;;;;5059937;28;20186;-58
2021/03/28 14:52:29;;;;;;;0.00;0.00;;;;;;;;;;5060231;28;20244;-58
2021/03/28 14:55:19;;;;;;;0.00;0.00;;;;;;;;;;5059489;28;20710;-58
2021/03/28 14:57:58;;;;;;;0.20;0.20;;;;;;;;;;5044614;28;20283;-58
2021/03/28 15:00:26;;;;;;;0.53;0.10;;;;;;;;;;5056298;28;20289;-58
2021/03/28 15:02:59;;;;;;;0.47;0.30;;;;;;;;;;5052039;28;20221;-59
2021/03/28 15:05:57;;;;;;;4.30;0.50;;;;;;;;;;5059618;28;20191;-58
2021/03/28 15:08:27;;;;;;;0.73;0.10;;;;;;;;;;5025588;28;21050;-58
2021/03/28 15:10:59;;;;;;;1.60;1.50;;;;;;;;;;5051819;28;20692;-58
2021/03/28 15:13:41;;;;;;;4.33;1.10;;;;;;;;;;5059035;28;20506;-58
2021/03/28 15:16:25;;;;;;;0.73;0.73;;;;;;;;;;5059756;28;20566;-59
2021/03/28 15:19:04;;;;;;;2.10;0.67;;;;;;;;;;5059811;28;20656;-58
2021/03/28 15:21:30;;;;;;;1.97;0.63;;;;;;;;;;5054880;28;20202;-58
2021/03/28 15:24:06;;;;;;;2.53;0.37;;;;;;;;;;5056157;28;20321;-58
2021/03/28 15:26:52;;;;;;;0.00;0.00;;;;;;;;;;5053274;28;20186;-58
2021/03/28 15:29:21;;;;;;;1.20;1.10;;;;;;;;;;5040606;28;20238;-58
2021/03/28 15:31:57;;;;;;;2.10;0.73;;;;;;;;;;5053298;28;20566;-58
2021/03/28 15:34:29;;;;;;;2.80;1.17;;;;;;;;;;5059549;28;20201;-58
2021/03/28 15:37:05;;;;;;;5.00;1.20;;;;;;;;;;5052075;28;20182;-58
2021/03/28 15:39:47;;;;;;;2.13;1.20;;;;;;;;;;5059155;28;20193;-58
2021/03/28 15:42:16;;;;;;;0.07;0.07;;;;;;;;;;5058601;28;20201;-58
2021/03/28 15:44:49;;;;;;;7.73;5.77;;;;;;;;;;5059322;28;20198;-58
2021/03/28 15:47:15;;;;;;;2.57;0.97;;;;;;;;;;5057887;28;20810;-58
2021/03/28 15:49:55;;;;;;;0.77;0.63;;;;;;;;;;5045898;28;20181;-58
2021/03/28 15:52:40;;;;;;;7.93;0.80;;;;;;;;;;5058871;28;20429;-58
2021/03/28 15:55:25;;;;;;;2.93;0.70;;;;;;;;;;5058247;28;20194;-58
2021/03/28 15:58:00;;;;;;;1.63;0.77;;;;;;;;;;5058004;28;20269;-58
2021/03/28 16:00:39;;;;;;;0.87;0.87;;;;;;;;;;5058585;28;20572;-58
2021/03/28 16:03:21;;;;;;;2.47;0.40;;;;;;;;;;5048421;28;20263;-58
2021/03/28 16:06:06;;;;;;;5.20;1.40;;;;;;;;;;5056498;28;20219;-58
2021/03/28 16:08:51;;;;;;;0.87;0.87;;;;;;;;;;5058670;28;20215;-58
2021/03/28 16:11:24;;;;;;;7.10;0.63;;;;;;;;;;5050037;28;20186;-58
2021/03/28 16:13:51;;;;;;;2.20;0.40;;;;;;;;;;5058392;28;20199;-58
2021/03/28 16:16:38;;;;;;;0.27;0.10;;;;;;;;;;5058082;28;20653;-58
2021/03/28 16:19:20;;;;;;;0.10;0.10;;;;;;;;;;5058329;28;20225;-58
2021/03/28 16:21:46;;;;;;;0.17;0.17;;;;;;;;;;5056288;28;20186;-58
2021/03/28 16:24:18;;;;;;;0.73;0.50;;;;;;;;;;5058068;28;20690;-58
2021/03/28 16:27:03;;;;;;;0.87;0.87;;;;;;;;;;5053561;28;20289;-58
2021/03/28 16:29:32;;;;;;;0.00;0.00;;;;;;;;;;5058056;28;20198;-58
2021/03/28 16:32:17;;;;;;;8.83;0.83;;;;;;;;;;5057347;28;20743;-58
2021/03/28 16:34:44;;;;;;;2.20;0.93;;;;;;;;;;5057569;28;20427;-58
2021/03/28 16:37:30;;;;;;;0.53;0.47;;;;;;;;;;5044746;28;20277;-58
2021/03/28 16:39:58;;;;;;;0.00;0.00;;;;;;;;;;5050417;28;20187;-58
2021/03/28 16:42:28;;;;;;;2.07;1.80;;;;;;;;;;5057670;28;20201;-58
2021/03/28 16:45:02;;;;;;;2.70;0.53;;;;;;;;;;5057427;28;20199;-58
2021/03/28 16:47:29;;;;;;;2.37;0.87;;;;;;;;;;5057908;28;20471;-58
2021/03/28 16:50:01;;;;;;;3.60;1.60;;;;;;;;;;5056914;28;20423;-58
2021/03/28 16:52:32;;;;;;;2.80;0.93;;;;;;;;;;5057187;28;21030;-58
2021/03/28 16:55:19;;;;;;;3.63;1.47;;;;;;;;;;5057340;28;20262;-58
2021/03/28 16:57:48;;;;;;;9.60;0.83;;;;;;;;;;5045869;28;20187;-58
2021/03/28 17:00:16;;;;;;;0.60;0.30;;;;;;;;;;5057478;28;20187;-58
2021/03/28 17:02:45;;;;;;;0.13;0.13;;;;;;;;;;5050154;28;20775;-58
2021/03/28 17:05:20;;;;;;;0.00;0.00;;;;;;;;;;5048861;28;20188;-58
2021/03/28 17:07:49;;;;;;;11.53;8.67;;;;;;;;;;5057811;28;20619;-58
2021/03/28 17:10:22;;;;;;;2.33;1.13;;;;;;;;;;5056945;28;20757;-58
2021/03/28 17:12:51;;;;;;;1.20;0.83;;;;;;;;;;5057274;28;20199;-58
2021/03/28 17:15:32;;;;;;;8.50;0.50;;;;;;;;;;5055696;28;20180;-58
2021/03/28 17:18:05;;;;;;;9.07;7.30;;;;;;;;;;5056990;28;20205;-58
2021/03/28 17:20:47;;;;;;;2.00;0.60;;;;;;;;;;5056862;28;20195;-58
2021/03/28 17:23:22;;;;;;;8.17;2.17;;;;;;;;;;5053559;28;20341;-58
2021/03/28 17:26:03;;;;;;;1.97;1.33;;;;;;;;;;5055338;28;20194;-57
2021/03/28 17:28:35;;;;;;;6.33;0.87;;;;;;;;;;5052308;28;20273;-58
2021/03/28 17:31:11;;;;;;;6.03;3.43;;;;;;;;;;5056970;28;20188;-57
2021/03/28 17:33:40;;;;;;;1.07;0.43;;;;;;;;;;5057016;28;20195;-58
2021/03/28 17:36:16;;;;;;;1.30;0.83;;;;;;;;;;5053973;28;20815;-58
2021/03/28 17:39:01;;;;;;;0.30;0.10;;;;;;;;;;5046148;28;20253;-58
2021/03/28 17:41:46;;;;;;;1.43;0.40;;;;;;;;;;5057447;28;20199;-58
2021/03/28 17:44:25;;;;;;;7.57;2.97;;;;;;;;;;5057492;28;20676;-58
2021/03/28 17:47:04;;;;;;;2.17;0.70;;;;;;;;;;5057531;28;20210;-58
2021/03/28 17:49:37;;;;;;;6.50;0.53;;;;;;;;;;5057073;28;20823;-58
2021/03/28 17:52:26;;;;;;;1.43;0.30;;;;;;;;;;5056370;28;20189;-58
2021/03/28 17:54:56;;;;;;;6.00;1.23;;;;;;;;;;5057186;28;20288;-58
2021/03/28 17:57:22;;;;;;;0.20;0.20;;;;;;;;;;5052455;28;20738;-58